createdAt,value
2023-03-29T00:01:34.915Z,4.16
2023-03-29T00:04:04.553Z,4.16
2023-03-29T00:06:33.191Z,4.12
2023-03-29T00:09:00.499Z,4.14
2023-03-29T00:11:27.447Z,4.08
2023-03-29T00:13:54.606Z,4.08
2023-03-29T00:16:21.407Z,4.09
2023-03-29T00:18:48.510Z,4.08
2023-03-29T00:21:15.282Z,4.02
2023-03-29T00:23:42.446Z,4.02
2023-03-29T00:26:09.406Z,3.96
2023-03-29T00:28:36.459Z,3.98
2023-03-29T00:31:07.473Z,4.01
2023-03-29T00:33:34.668Z,4.00
2023-03-29T00:36:02.033Z,3.98
2023-03-29T00:38:29.239Z,3.94
2023-03-29T00:40:56.054Z,3.90
2023-03-29T00:43:23.181Z,3.93
2023-03-29T00:45:50.004Z,3.92
2023-03-29T00:48:18.665Z,3.90
2023-03-29T00:50:48.611Z,3.89
2023-03-29T00:53:30.849Z,3.89
2023-03-29T00:56:29.916Z,3.83
2023-03-29T00:59:07.209Z,3.84
2023-03-29T01:01:42.501Z,3.81
2023-03-29T01:04:18.017Z,3.78
2023-03-29T01:06:57.167Z,3.80
2023-03-29T01:09:24.288Z,3.76
2023-03-29T01:11:52.844Z,3.75
2023-03-29T01:14:26.597Z,3.72
2023-03-29T01:16:53.415Z,3.72
2023-03-29T01:19:21.495Z,3.74
2023-03-29T01:22:03.874Z,3.71
2023-03-29T01:24:37.999Z,3.69
2023-03-29T01:27:22.857Z,3.69
2023-03-29T01:30:00.328Z,3.68
2023-03-29T01:32:31.318Z,3.65
2023-03-29T01:35:10.410Z,3.63
2023-03-29T01:37:42.530Z,3.61
2023-03-29T01:40:10.041Z,3.60
2023-03-29T01:42:41.201Z,3.58
2023-03-29T01:45:16.997Z,3.53
2023-03-29T01:47:49.759Z,3.55
2023-03-29T01:50:32.285Z,3.57
2023-03-29T01:53:09.832Z,3.54
2023-03-29T01:55:39.452Z,3.52
2023-03-29T01:58:07.354Z,3.50
2023-03-29T02:00:34.855Z,3.51
2023-03-29T02:03:05.079Z,3.48
2023-03-29T02:05:32.255Z,3.45
2023-03-29T02:08:00.261Z,3.42
2023-03-29T02:10:27.468Z,3.44
2023-03-29T02:12:54.218Z,3.39
2023-03-29T02:15:21.591Z,3.43
2023-03-29T02:17:49.342Z,3.38
2023-03-29T02:20:22.819Z,3.41
2023-03-29T02:23:12.351Z,3.38
2023-03-29T02:25:39.463Z,3.38
2023-03-29T02:28:06.796Z,3.34
2023-03-29T02:30:55.161Z,3.37
2023-03-29T02:33:27.966Z,3.34
2023-03-29T02:35:59.201Z,3.30
2023-03-29T02:38:26.430Z,3.29
2023-03-29T02:40:55.307Z,3.30
2023-03-29T02:43:23.831Z,3.25
2023-03-29T02:45:52.490Z,3.26
2023-03-29T02:48:22.060Z,3.24
2023-03-29T02:50:51.287Z,3.22
2023-03-29T02:53:20.059Z,3.22
2023-03-29T02:55:47.116Z,3.19
2023-03-29T02:58:15.406Z,3.21
2023-03-29T03:00:45.337Z,3.18
2023-03-29T03:03:12.574Z,3.15
2023-03-29T03:05:39.774Z,3.12
2023-03-29T03:08:07.474Z,3.08
2023-03-29T03:10:35.471Z,3.14
2023-03-29T03:13:02.404Z,3.15
2023-03-29T03:15:31.141Z,3.16
2023-03-29T03:17:58.049Z,3.11
2023-03-29T03:20:26.587Z,3.13
2023-03-29T03:22:53.423Z,3.13
2023-03-29T03:25:22.147Z,3.12
2023-03-29T03:27:49.746Z,3.06
2023-03-29T03:30:17.011Z,3.04
2023-03-29T03:32:44.746Z,3.04
2023-03-29T03:35:12.357Z,3.08
2023-03-29T03:37:39.292Z,2.97
2023-03-29T03:40:12.074Z,3.02
2023-03-29T03:42:41.783Z,3.01
2023-03-29T03:45:09.780Z,2.99
2023-03-29T03:47:39.696Z,2.97
2023-03-29T03:50:07.565Z,2.96
2023-03-29T03:52:34.535Z,2.94
2023-03-29T03:55:03.462Z,2.86
2023-03-29T03:57:30.249Z,2.97
2023-03-29T03:59:57.574Z,2.91
2023-03-29T04:02:24.397Z,2.89
2023-03-29T04:04:51.582Z,2.95
2023-03-29T04:07:18.498Z,2.92
2023-03-29T04:09:45.928Z,2.91
2023-03-29T04:12:12.720Z,2.91
2023-03-29T04:14:40.412Z,2.90
2023-03-29T04:17:07.132Z,2.96
2023-03-29T04:19:34.706Z,2.90
2023-03-29T04:22:01.482Z,2.86
2023-03-29T04:24:28.540Z,2.92
2023-03-29T04:26:55.514Z,2.96
2023-03-29T04:29:22.600Z,3.18
2023-03-29T04:31:49.466Z,3.41
2023-03-29T04:34:16.952Z,3.46
2023-03-29T04:36:44.056Z,3.36
2023-03-29T04:39:11.169Z,3.25
2023-03-29T04:41:37.908Z,3.17
2023-03-29T04:44:05.211Z,3.28
2023-03-29T04:46:32.499Z,3.24
2023-03-29T04:48:59.963Z,3.19
2023-03-29T04:51:27.537Z,3.12
2023-03-29T04:53:54.618Z,3.15
2023-03-29T04:56:23.089Z,3.11
2023-03-29T04:58:50.989Z,3.18
2023-03-29T05:01:18.082Z,3.15
2023-03-29T05:03:45.195Z,3.16
2023-03-29T05:06:12.156Z,3.18
2023-03-29T05:08:39.525Z,3.16
2023-03-29T05:11:10.376Z,3.16
2023-03-29T05:13:37.649Z,3.15
2023-03-29T05:16:04.629Z,3.13
2023-03-29T05:18:31.938Z,3.16
2023-03-29T05:20:59.567Z,3.15
2023-03-29T05:23:27.119Z,3.14
2023-03-29T05:25:54.088Z,3.15
2023-03-29T05:28:21.620Z,3.10
2023-03-29T05:31:04.563Z,3.11
2023-03-29T05:33:31.973Z,3.10
2023-03-29T05:36:10.889Z,3.11
2023-03-29T05:38:38.220Z,3.12
2023-03-29T05:41:06.734Z,3.15
2023-03-29T05:43:33.840Z,3.18
2023-03-29T05:46:00.864Z,3.20
2023-03-29T05:48:28.770Z,3.23
2023-03-29T05:50:56.369Z,3.22
2023-03-29T05:53:24.220Z,3.28
2023-03-29T05:55:51.584Z,3.31
2023-03-29T05:58:19.321Z,3.37
2023-03-29T06:00:46.652Z,3.39
2023-03-29T06:03:21.301Z,3.40
2023-03-29T06:05:49.972Z,3.48
2023-03-29T06:08:17.066Z,3.51
2023-03-29T06:10:43.898Z,3.54
2023-03-29T06:13:11.921Z,3.62
2023-03-29T06:15:38.689Z,3.64
2023-03-29T06:18:06.140Z,3.64
2023-03-29T06:20:33.269Z,3.66
2023-03-29T06:23:00.402Z,3.67
2023-03-29T06:25:27.211Z,3.71
2023-03-29T06:27:54.342Z,3.77
2023-03-29T06:30:21.110Z,3.81
2023-03-29T06:32:50.551Z,3.81
2023-03-29T06:35:17.597Z,3.84
2023-03-29T06:37:50.057Z,3.91
2023-03-29T06:40:19.013Z,3.97
2023-03-29T06:42:47.732Z,3.99
2023-03-29T06:45:14.688Z,4.04
2023-03-29T06:47:42.090Z,4.11
2023-03-29T06:50:09.302Z,4.16
2023-03-29T06:52:36.812Z,4.24
2023-03-29T06:55:07.608Z,4.32
2023-03-29T06:57:34.713Z,4.38
2023-03-29T07:00:01.667Z,4.43
2023-03-29T07:02:29.082Z,4.54
2023-03-29T07:04:56.276Z,4.62
2023-03-29T07:07:27.558Z,4.65
2023-03-29T07:09:55.501Z,4.74
2023-03-29T07:12:23.044Z,4.76
2023-03-29T07:14:49.889Z,4.88
2023-03-29T07:17:16.958Z,4.92
2023-03-29T07:19:43.905Z,5.02
2023-03-29T07:22:11.347Z,5.07
2023-03-29T07:24:38.116Z,5.13
2023-03-29T07:27:05.311Z,5.21
2023-03-29T07:29:32.338Z,5.29
2023-03-29T07:31:59.363Z,5.37
2023-03-29T07:34:27.237Z,5.43
2023-03-29T07:36:54.661Z,5.51
2023-03-29T07:39:22.360Z,5.56
2023-03-29T07:41:49.430Z,5.63
2023-03-29T07:44:19.369Z,5.72
2023-03-29T07:46:46.477Z,5.79
2023-03-29T07:49:13.191Z,5.81
2023-03-29T07:52:12.930Z,5.94
2023-03-29T07:54:39.791Z,6.02
2023-03-29T07:57:06.926Z,6.11
2023-03-29T07:59:36.805Z,6.18
2023-03-29T08:02:03.861Z,6.29
2023-03-29T08:04:31.023Z,6.34
2023-03-29T08:06:58.345Z,6.45
2023-03-29T08:09:25.977Z,6.48
2023-03-29T08:11:53.538Z,6.57
2023-03-29T08:14:29.620Z,6.63
2023-03-29T08:17:04.532Z,6.67
2023-03-29T08:19:32.329Z,6.77
2023-03-29T08:22:27.132Z,6.88
2023-03-29T08:25:00.786Z,6.95
2023-03-29T08:27:35.640Z,7.01
2023-03-29T08:30:14.861Z,7.09
2023-03-29T08:32:42.273Z,7.21
2023-03-29T08:35:09.999Z,7.26
2023-03-29T08:37:38.112Z,7.42
2023-03-29T08:40:05.762Z,7.50
2023-03-29T08:42:51.365Z,7.60
2023-03-29T08:45:24.435Z,7.72
2023-03-29T08:48:04.942Z,7.78
2023-03-29T08:50:58.575Z,7.89
2023-03-29T08:53:33.263Z,8.01
2023-03-29T08:56:00.397Z,8.18
2023-03-29T08:58:29.166Z,8.24
2023-03-29T09:01:00.234Z,8.33
2023-03-29T09:04:09.067Z,8.44
2023-03-29T09:09:58.468Z,8.60
2023-03-29T09:12:56.500Z,8.71
2023-03-29T09:15:31.755Z,8.82
2023-03-29T09:17:58.501Z,8.88
2023-03-29T09:20:44.044Z,8.99
2023-03-29T09:23:19.632Z,9.13
2023-03-29T09:26:04.927Z,9.19
2023-03-29T09:28:39.000Z,9.31
2023-03-29T09:31:07.891Z,9.37
2023-03-29T09:33:45.024Z,9.41
2023-03-29T09:36:54.238Z,9.53
2023-03-29T09:39:21.250Z,9.66
2023-03-29T09:41:57.395Z,9.73
2023-03-29T09:44:31.381Z,9.75
2023-03-29T09:47:28.150Z,9.87
2023-03-29T09:50:01.830Z,9.97
2023-03-29T09:52:37.133Z,10.05
2023-03-29T09:55:30.470Z,10.18
2023-03-29T09:58:01.659Z,10.26
2023-03-29T10:00:28.511Z,10.36
2023-03-29T10:03:28.502Z,10.43
2023-03-29T10:09:02.977Z,10.63
2023-03-29T10:11:34.751Z,10.67
2023-03-29T10:14:16.850Z,10.75
2023-03-29T10:16:47.692Z,10.82
2023-03-29T10:19:46.230Z,10.94
2023-03-29T10:22:23.127Z,11.01
2023-03-29T10:24:51.455Z,11.10
2023-03-29T10:27:27.049Z,11.18
2023-03-29T10:29:54.087Z,11.28
2023-03-29T10:32:27.777Z,11.34
2023-03-29T10:34:54.663Z,11.43
2023-03-29T10:37:31.242Z,11.51
2023-03-29T10:39:58.210Z,11.61
2023-03-29T10:42:25.308Z,11.70
2023-03-29T10:44:57.014Z,11.74
2023-03-29T10:47:24.410Z,11.79
2023-03-29T10:49:57.105Z,11.91
2023-03-29T10:52:24.748Z,11.96
2023-03-29T10:54:52.348Z,12.07
2023-03-29T10:57:33.763Z,12.13
2023-03-29T11:00:11.163Z,12.21
2023-03-29T11:02:58.547Z,12.18
2023-03-29T11:05:28.381Z,12.33
2023-03-29T11:08:23.535Z,12.35
2023-03-29T11:11:08.851Z,12.48
2023-03-29T11:13:48.905Z,12.46
2023-03-29T11:16:30.926Z,12.64
2023-03-29T11:18:58.022Z,12.70
2023-03-29T11:21:31.381Z,12.72
2023-03-29T11:24:27.663Z,12.80
2023-03-29T11:27:16.013Z,12.91
2023-03-29T11:29:58.597Z,12.90
2023-03-29T11:32:37.346Z,12.88
2023-03-29T11:35:19.189Z,12.98
2023-03-29T11:37:55.476Z,13.09
2023-03-29T11:40:44.702Z,13.12
2023-03-29T11:43:27.966Z,13.11
2023-03-29T11:46:07.574Z,13.17
2023-03-29T11:48:36.610Z,13.25
2023-03-29T11:51:06.844Z,13.22
2023-03-29T11:53:42.712Z,13.30
2023-03-29T11:56:50.471Z,13.34
2023-03-29T11:59:55.436Z,13.43
2023-03-29T12:02:53.341Z,13.32
2023-03-29T12:05:21.615Z,13.49
2023-03-29T12:08:06.763Z,13.49
2023-03-29T12:11:23.003Z,13.59
2023-03-29T12:15:17.671Z,13.58
2023-03-29T12:17:55.135Z,13.57
2023-03-29T12:20:33.033Z,13.46
2023-03-29T12:23:00.785Z,13.68
2023-03-29T12:25:45.562Z,13.67
2023-03-29T12:28:34.710Z,13.63
2023-03-29T12:31:24.722Z,13.70
2023-03-29T12:33:51.817Z,13.79
2023-03-29T12:36:36.987Z,13.77
2023-03-29T12:40:43.457Z,13.73
2023-03-29T12:43:39.184Z,13.81
2023-03-29T12:46:38.307Z,13.84
2023-03-29T12:49:12.752Z,13.94
2023-03-29T12:51:43.547Z,13.89
2023-03-29T12:54:37.478Z,13.91
2023-03-29T12:57:28.159Z,13.91
2023-03-29T12:59:55.053Z,13.88
2023-03-29T13:02:22.158Z,13.98
2023-03-29T13:04:51.227Z,13.94
2023-03-29T13:07:24.258Z,13.90
2023-03-29T13:09:54.159Z,13.97
2023-03-29T13:12:23.051Z,14.04
2023-03-29T13:14:57.751Z,14.12
2023-03-29T13:17:27.300Z,14.17
2023-03-29T13:20:18.184Z,14.17
2023-03-29T13:22:52.501Z,14.16
2023-03-29T13:25:55.940Z,14.18
2023-03-29T13:28:29.578Z,14.32
2023-03-29T13:31:00.094Z,14.28
2023-03-29T13:33:49.120Z,14.29
2023-03-29T13:36:21.282Z,14.33
2023-03-29T13:38:49.989Z,14.41
2023-03-29T13:41:38.198Z,14.44
2023-03-29T13:44:16.894Z,14.40
2023-03-29T13:46:44.038Z,14.37
2023-03-29T13:49:24.319Z,14.38
2023-03-29T13:51:54.385Z,14.45
2023-03-29T13:54:38.411Z,14.43
2023-03-29T13:57:13.965Z,14.45
2023-03-29T14:00:12.337Z,14.51
2023-03-29T14:02:56.322Z,14.53
2023-03-29T14:05:26.147Z,14.53
2023-03-29T14:07:53.598Z,14.61
2023-03-29T14:10:39.628Z,14.60
2023-03-29T14:13:06.526Z,14.46
2023-03-29T14:15:49.457Z,14.56
2023-03-29T14:18:21.822Z,14.67
2023-03-29T14:20:50.705Z,14.67
2023-03-29T14:23:20.213Z,14.63
2023-03-29T14:25:47.333Z,14.60
2023-03-29T14:28:24.133Z,14.76
2023-03-29T14:30:52.814Z,14.74
2023-03-29T14:33:29.110Z,14.79
2023-03-29T14:35:56.408Z,14.74
2023-03-29T14:38:23.527Z,14.75
2023-03-29T14:40:50.936Z,14.78
2023-03-29T14:43:19.436Z,14.73
2023-03-29T14:45:46.648Z,14.69
2023-03-29T14:48:13.592Z,14.70
2023-03-29T14:50:41.112Z,14.68
2023-03-29T14:53:08.422Z,14.70
2023-03-29T14:55:36.705Z,14.52
2023-03-29T14:58:04.377Z,14.56
2023-03-29T15:00:38.873Z,14.65
2023-03-29T15:03:13.146Z,14.71
2023-03-29T15:05:41.446Z,14.69
2023-03-29T15:08:50.842Z,14.68
2023-03-29T15:11:31.712Z,14.65
2023-03-29T15:14:04.001Z,14.61
2023-03-29T15:16:31.359Z,14.57
2023-03-29T15:18:58.333Z,14.54
2023-03-29T15:21:26.214Z,14.42
2023-03-29T15:23:57.311Z,14.41
2023-03-29T15:26:30.987Z,14.46
2023-03-29T15:29:17.049Z,14.44
2023-03-29T15:31:54.099Z,14.35
2023-03-29T15:34:28.563Z,14.34
2023-03-29T15:36:57.829Z,14.30
2023-03-29T15:39:56.778Z,14.34
2023-03-29T15:42:54.594Z,14.34
2023-03-29T15:45:53.705Z,14.33
2023-03-29T15:48:23.565Z,14.29
2023-03-29T15:51:42.860Z,14.27
2023-03-29T15:54:10.051Z,14.23
2023-03-29T15:56:43.535Z,14.21
2023-03-29T15:59:11.757Z,14.19
2023-03-29T16:01:42.550Z,14.14
2023-03-29T16:04:19.715Z,14.14
2023-03-29T16:06:48.856Z,14.15
2023-03-29T16:09:17.042Z,14.11
2023-03-29T16:11:45.146Z,14.11
2023-03-29T16:14:27.096Z,14.03
2023-03-29T16:17:00.391Z,13.99
2023-03-29T16:19:27.966Z,13.96
2023-03-29T16:21:55.786Z,13.94
2023-03-29T16:24:24.701Z,13.88
2023-03-29T16:27:47.756Z,13.84
2023-03-29T16:30:15.109Z,13.80
2023-03-29T16:32:42.116Z,13.82
2023-03-29T16:35:29.581Z,13.78
2023-03-29T16:37:56.473Z,13.77
2023-03-29T16:40:24.011Z,13.73
2023-03-29T16:42:51.458Z,13.70
2023-03-29T16:45:18.966Z,13.66
2023-03-29T16:47:45.921Z,13.64
2023-03-29T16:50:14.397Z,13.59
2023-03-29T16:52:41.685Z,13.54
2023-03-29T16:55:12.162Z,13.51
2023-03-29T16:57:40.141Z,13.49
2023-03-29T17:00:08.779Z,13.48
2023-03-29T17:02:35.669Z,13.45
2023-03-29T17:05:03.269Z,13.43
2023-03-29T17:07:30.282Z,13.41
2023-03-29T17:09:57.396Z,13.36
2023-03-29T17:12:24.161Z,13.33
2023-03-29T17:14:51.261Z,13.32
2023-03-29T17:17:18.747Z,13.28
2023-03-29T17:19:45.916Z,13.25
2023-03-29T17:22:12.692Z,13.23
2023-03-29T17:24:39.808Z,13.20
2023-03-29T17:27:06.700Z,13.16
2023-03-29T17:29:33.847Z,13.13
2023-03-29T17:32:00.998Z,13.08
2023-03-29T17:34:29.136Z,13.07
2023-03-29T17:36:56.312Z,13.06
2023-03-29T17:39:25.172Z,13.04
2023-03-29T17:41:52.553Z,13.01
2023-03-29T17:44:19.922Z,12.97
2023-03-29T17:46:46.731Z,12.94
2023-03-29T17:49:14.794Z,12.87
2023-03-29T17:51:41.664Z,12.80
2023-03-29T17:54:08.832Z,12.76
2023-03-29T17:56:35.789Z,12.75
2023-03-29T17:59:02.944Z,12.71
2023-03-29T18:01:29.736Z,12.70
2023-03-29T18:03:56.978Z,12.66
2023-03-29T18:06:23.827Z,12.62
2023-03-29T18:08:53.138Z,12.57
2023-03-29T18:11:22.949Z,12.50
2023-03-29T18:13:51.083Z,12.50
2023-03-29T18:16:18.624Z,12.43
2023-03-29T18:18:46.394Z,12.43
2023-03-29T18:21:14.302Z,12.39
2023-03-29T18:23:47.251Z,12.37
2023-03-29T18:26:15.012Z,12.34
2023-03-29T18:28:42.363Z,12.34
2023-03-29T18:31:09.402Z,12.30
2023-03-29T18:33:36.649Z,12.26
2023-03-29T18:36:10.685Z,12.19
2023-03-29T18:38:40.489Z,12.14
2023-03-29T18:41:08.645Z,12.09
2023-03-29T18:43:36.027Z,12.06
2023-03-29T18:46:03.258Z,12.05
2023-03-29T18:48:31.166Z,12.03
2023-03-29T18:50:58.237Z,12.02
2023-03-29T18:53:26.351Z,11.97
2023-03-29T18:55:53.149Z,11.88
2023-03-29T18:58:23.996Z,11.89
2023-03-29T19:00:51.618Z,11.84
2023-03-29T19:03:18.981Z,11.80
2023-03-29T19:05:46.346Z,11.78
2023-03-29T19:08:13.581Z,11.77
2023-03-29T19:10:40.750Z,11.72
2023-03-29T19:13:08.070Z,11.72
2023-03-29T19:15:35.168Z,11.72
2023-03-29T19:18:02.751Z,11.69
2023-03-29T19:20:30.370Z,11.65
2023-03-29T19:22:57.791Z,11.62
2023-03-29T19:25:24.652Z,11.54
2023-03-29T19:27:51.827Z,11.56
2023-03-29T19:30:20.213Z,11.53
2023-03-29T19:32:48.302Z,11.48
2023-03-29T19:35:15.804Z,11.42
2023-03-29T19:37:42.968Z,11.42
2023-03-29T19:40:11.277Z,11.38
2023-03-29T19:42:38.655Z,11.32
2023-03-29T19:45:06.670Z,11.31
2023-03-29T19:47:34.279Z,11.28
2023-03-29T19:50:01.380Z,11.27
2023-03-29T19:52:28.719Z,11.27
2023-03-29T19:54:56.449Z,11.25
2023-03-29T19:57:23.993Z,11.20
2023-03-29T19:59:53.087Z,11.18
2023-03-29T20:02:20.266Z,11.12
2023-03-29T20:04:47.060Z,11.06
2023-03-29T20:07:14.417Z,11.04
2023-03-29T20:09:44.621Z,11.05
2023-03-29T20:12:12.560Z,11.06
2023-03-29T20:14:40.291Z,11.04
2023-03-29T20:17:07.777Z,11.01
2023-03-29T20:19:36.815Z,10.99
2023-03-29T20:22:04.223Z,10.93
2023-03-29T20:24:32.591Z,10.97
2023-03-29T20:26:59.835Z,10.94
2023-03-29T20:29:27.727Z,10.91
2023-03-29T20:31:54.903Z,10.88
2023-03-29T20:34:22.407Z,10.89
2023-03-29T20:36:49.691Z,10.83
2023-03-29T20:39:18.811Z,10.83
2023-03-29T20:41:50.694Z,10.84
2023-03-29T20:44:17.652Z,10.81
2023-03-29T20:47:02.202Z,10.83
2023-03-29T20:49:38.087Z,10.82
2023-03-29T20:52:15.946Z,10.81
2023-03-29T20:54:43.395Z,10.80
2023-03-29T20:57:14.061Z,10.75
2023-03-29T20:59:41.664Z,10.74
2023-03-29T21:02:11.976Z,10.75
2023-03-29T21:04:38.821Z,10.72
2023-03-29T21:07:06.493Z,10.72
2023-03-29T21:09:35.517Z,10.69
2023-03-29T21:12:02.805Z,10.71
2023-03-29T21:14:30.467Z,10.68
2023-03-29T21:16:57.841Z,10.71
2023-03-29T21:19:24.786Z,10.68
2023-03-29T21:21:52.318Z,10.71
2023-03-29T21:24:19.236Z,10.70
2023-03-29T21:26:46.617Z,10.70
2023-03-29T21:29:13.714Z,10.69
2023-03-29T21:31:41.167Z,10.69
2023-03-29T21:34:08.211Z,10.67
2023-03-29T21:36:35.790Z,10.69
2023-03-29T21:39:02.755Z,10.71
2023-03-29T21:41:29.996Z,10.70
2023-03-29T21:43:56.936Z,10.68
2023-03-29T21:46:25.873Z,10.70
2023-03-29T21:48:52.852Z,10.67
2023-03-29T21:51:20.130Z,10.68
2023-03-29T21:53:47.342Z,10.72
2023-03-29T21:56:14.989Z,10.71
2023-03-29T21:58:42.007Z,10.67
2023-03-29T22:01:10.525Z,10.68
2023-03-29T22:03:37.980Z,10.68
2023-03-29T22:06:09.978Z,10.65
2023-03-29T22:08:38.992Z,10.65
2023-03-29T22:11:09.425Z,10.64
2023-03-29T22:13:36.777Z,10.62
2023-03-29T22:16:04.403Z,10.60
2023-03-29T22:18:42.485Z,10.63
2023-03-29T22:21:14.596Z,10.61
2023-03-29T22:23:42.515Z,10.57
2023-03-29T22:26:11.151Z,10.60
2023-03-29T22:28:38.254Z,10.59
2023-03-29T22:31:07.294Z,10.61
2023-03-29T22:33:34.420Z,10.58
2023-03-29T22:36:02.105Z,10.54
2023-03-29T22:38:29.273Z,10.57
2023-03-29T22:40:56.499Z,10.57
2023-03-29T22:43:23.456Z,10.53
2023-03-29T22:45:50.777Z,10.57
2023-03-29T22:48:17.801Z,10.53
2023-03-29T22:50:48.155Z,10.52
2023-03-29T22:53:15.245Z,10.49
2023-03-29T22:55:43.920Z,10.50
2023-03-29T22:58:10.834Z,10.51
2023-03-29T23:00:38.031Z,10.52
2023-03-29T23:03:04.979Z,10.51
2023-03-29T23:05:32.536Z,10.51
2023-03-29T23:07:59.455Z,10.49
2023-03-29T23:10:29.013Z,10.48
2023-03-29T23:13:12.869Z,10.46
2023-03-29T23:15:45.719Z,10.45
2023-03-29T23:18:15.465Z,10.46
2023-03-29T23:20:42.764Z,10.46
2023-03-29T23:23:09.648Z,10.47
2023-03-29T23:25:36.943Z,10.42
2023-03-29T23:28:03.925Z,10.43
2023-03-29T23:30:31.665Z,10.44
2023-03-29T23:33:00.285Z,10.48
2023-03-29T23:35:27.551Z,10.48
2023-03-29T23:37:54.515Z,10.49
2023-03-29T23:40:21.996Z,10.39
2023-03-29T23:42:48.972Z,10.40
2023-03-29T23:45:18.327Z,10.40
2023-03-29T23:47:45.569Z,10.45
2023-03-29T23:50:13.742Z,10.39
2023-03-29T23:52:41.231Z,10.43
2023-03-29T23:55:10.063Z,10.39
2023-03-29T23:57:37.195Z,10.42
